Time;durP1;ratioP1;P1;durP2;ratioP2;P2;SDS_P1;SDS_P2;PMS_P1;PMS_P2;Temp;Humidity;BMP_temperature;BMP_pressure;BME280_temperature;BME280_humidity;BME280_pressure;Samples;Min_cycle;Max_cycle;Signal;HPM_P1;HPM_P2
2021/11/21 00:02:15;;;;;;;0.10;0.10;;;9.00;99.90;;;;;;5114789;28;20042;-86
2021/11/21 00:04:41;;;;;;;0.00;0.00;;;9.00;99.90;;;;;;5131605;28;20107;-85
2021/11/21 00:07:08;;;;;;;0.10;0.10;;;9.00;99.90;;;;;;5097791;28;20569;-82
2021/11/21 00:09:36;;;;;;;0.03;0.03;;;9.00;99.90;;;;;;5131861;28;20096;-82
2021/11/21 00:12:03;;;;;;;0.00;0.00;;;9.00;99.90;;;;;;5132588;28;20044;-86
2021/11/21 00:14:30;;;;;;;0.00;0.00;;;9.00;99.90;;;;;;5114899;28;20031;-84
2021/11/21 00:17:01;;;;;;;0.10;0.10;;;9.00;99.90;;;;;;5114787;28;20039;-82
2021/11/21 00:19:28;;;;;;;0.00;0.00;;;9.00;99.90;;;;;;5115266;28;20449;-82
2021/11/21 00:21:54;;;;;;;0.00;0.00;;;9.00;99.90;;;;;;5114832;28;20035;-82
2021/11/21 00:24:21;;;;;;;0.00;0.00;;;9.00;99.90;;;;;;5114781;28;20031;-82
2021/11/21 00:26:48;;;;;;;0.00;0.00;;;9.00;99.90;;;;;;5098224;28;20035;-83
2021/11/21 00:29:15;;;;;;;0.00;0.00;;;8.90;99.90;;;;;;5115406;28;20047;-82
2021/11/21 00:31:42;;;;;;;0.10;0.10;;;9.00;99.90;;;;;;5114901;28;20035;-82
2021/11/21 00:34:08;;;;;;;0.10;0.10;;;9.00;99.90;;;;;;5131734;28;20047;-85
2021/11/21 00:36:35;;;;;;;0.00;0.00;;;9.00;99.90;;;;;;5115332;28;20040;-85
2021/11/21 00:39:03;;;;;;;0.00;0.00;;;9.00;99.90;;;;;;5098260;28;20058;-82
2021/11/21 00:41:30;;;;;;;0.10;0.10;;;8.90;99.90;;;;;;5115513;28;20043;-82
2021/11/21 00:43:57;;;;;;;0.00;0.00;;;8.90;99.90;;;;;;5148114;28;20473;-85
2021/11/21 00:46:23;;;;;;;0.00;0.00;;;8.90;99.90;;;;;;5132407;28;20040;-82
2021/11/21 00:48:50;;;;;;;0.00;0.00;;;8.90;99.90;;;;;;5130825;28;20561;-82
2021/11/21 00:51:18;;;;;;;0.08;0.08;;;8.90;99.90;;;;;;5098194;28;20042;-82
2021/11/21 00:53:51;;;;;;;0.00;0.00;;;8.90;99.90;;;;;;5131495;28;20482;-82
2021/11/21 00:56:18;;;;;;;0.00;0.00;;;8.90;99.90;;;;;;5115838;28;20043;-85
2021/11/21 00:58:45;;;;;;;0.00;0.00;;;8.90;99.90;;;;;;5131329;28;20046;-82
2021/11/21 01:01:12;;;;;;;0.00;0.00;;;8.90;99.90;;;;;;5131330;28;20399;-82
2021/11/21 01:03:40;;;;;;;0.10;0.10;;;8.90;99.90;;;;;;5130898;28;20474;-82
2021/11/21 01:06:06;;;;;;;0.03;0.03;;;8.90;99.90;;;;;;5114485;28;20056;-85
2021/11/21 01:08:33;;;;;;;0.00;0.00;;;8.90;99.90;;;;;;5097907;28;20404;-82
2021/11/21 01:11:03;;;;;;;0.03;0.03;;;8.90;99.90;;;;;;5114713;28;20040;-82
2021/11/21 01:13:30;;;;;;;0.00;0.00;;;8.90;99.90;;;;;;5115305;28;20499;-86
2021/11/21 01:15:57;;;;;;;0.00;0.00;;;8.80;99.90;;;;;;5147646;28;20028;-85
2021/11/21 01:18:23;;;;;;;0.08;0.08;;;8.90;99.90;;;;;;5131705;28;20043;-82
2021/11/21 01:20:50;;;;;;;0.00;0.00;;;8.90;99.90;;;;;;5097007;28;20039;-82
2021/11/21 01:23:18;;;;;;;0.00;0.00;;;8.90;99.90;;;;;;5131764;28;20036;-86
2021/11/21 01:25:46;;;;;;;0.00;0.00;;;8.90;99.90;;;;;;5148079;28;20097;-82
2021/11/21 01:28:14;;;;;;;0.00;0.00;;;8.90;99.90;;;;;;5114713;28;20082;-82
2021/11/21 01:30:42;;;;;;;0.00;0.00;;;8.90;99.90;;;;;;5098024;28;20396;-82
2021/11/21 01:33:09;;;;;;;0.00;0.00;;;8.90;99.90;;;;;;5130602;28;20038;-82
2021/11/21 01:35:36;;;;;;;0.00;0.00;;;8.90;99.90;;;;;;5114055;28;20044;-86
2021/11/21 01:38:04;;;;;;;0.00;0.00;;;8.80;99.90;;;;;;5117831;28;20093;-86
2021/11/21 01:40:31;;;;;;;0.00;0.00;;;8.90;99.90;;;;;;5118389;28;20447;-86
2021/11/21 01:42:58;;;;;;;0.05;0.05;;;8.90;99.90;;;;;;5134756;28;20035;-86
2021/11/21 01:45:26;;;;;;;0.00;0.00;;;8.90;99.90;;;;;;5152198;28;20507;-86
2021/11/21 01:47:53;;;;;;;0.00;0.00;;;8.90;99.90;;;;;;5151300;28;20040;-82
2021/11/21 01:50:34;;;;;;;0.00;0.00;;;8.90;99.90;;;;;;5134485;28;20027;-82
2021/11/21 01:53:02;;;;;;;0.20;0.10;;;8.90;99.90;;;;;;5150742;28;20036;-85
2021/11/21 01:55:29;;;;;;;0.00;0.00;;;8.90;99.90;;;;;;5117685;28;20847;-82
2021/11/21 01:57:57;;;;;;;0.00;0.00;;;8.80;99.90;;;;;;5134287;28;20406;-86
2021/11/21 02:00:31;;;;;;;0.00;0.00;;;8.90;99.90;;;;;;5134255;28;20039;-82
2021/11/21 02:03:01;;;;;;;0.10;0.10;;;8.90;99.90;;;;;;5153908;28;20058;-82
2021/11/21 02:05:28;;;;;;;0.10;0.10;;;8.90;99.90;;;;;;5152965;28;20059;-85
2021/11/21 02:07:55;;;;;;;0.00;0.00;;;8.90;99.90;;;;;;5117866;28;20416;-85
2021/11/21 02:10:23;;;;;;;0.03;0.03;;;8.90;99.90;;;;;;5100342;28;20046;-82
2021/11/21 02:12:51;;;;;;;0.00;0.00;;;8.90;99.90;;;;;;5133462;28;20760;-82
2021/11/21 02:15:20;;;;;;;0.10;0.10;;;8.80;99.90;;;;;;5134106;28;20037;-85
2021/11/21 02:17:48;;;;;;;0.08;0.08;;;8.90;99.90;;;;;;5150894;28;20071;-82
2021/11/21 02:20:17;;;;;;;0.10;0.10;;;8.90;99.90;;;;;;5117551;28;20483;-86
2021/11/21 02:22:44;;;;;;;0.10;0.10;;;8.90;99.90;;;;;;5134322;28;20039;-85
2021/11/21 02:25:11;;;;;;;0.00;0.00;;;8.90;99.90;;;;;;5133802;28;20068;-82
2021/11/21 02:27:38;;;;;;;0.00;0.00;;;8.80;99.90;;;;;;5116819;28;20047;-86
2021/11/21 02:30:08;;;;;;;0.20;0.20;;;8.80;99.90;;;;;;5135321;28;20035;-82
2021/11/21 02:32:43;;;;;;;0.00;0.00;;;8.80;99.90;;;;;;5135565;28;20040;-86
2021/11/21 02:35:10;;;;;;;0.00;0.00;;;8.80;99.90;;;;;;5134062;28;20077;-85
2021/11/21 02:37:37;;;;;;;0.03;0.03;;;8.90;99.90;;;;;;5117973;28;20039;-82
2021/11/21 02:40:04;;;;;;;0.00;0.00;;;8.90;99.90;;;;;;5134022;28;20408;-82
2021/11/21 02:42:36;;;;;;;0.00;0.00;;;8.90;99.90;;;;;;5116214;28;20516;-82
2021/11/21 02:45:07;;;;;;;0.03;0.03;;;8.80;99.90;;;;;;5133525;28;20035;-82
2021/11/21 02:47:34;;;;;;;0.00;0.00;;;8.90;99.90;;;;;;5133900;28;20079;-86
2021/11/21 02:50:05;;;;;;;0.00;0.00;;;8.80;99.90;;;;;;5116470;28;20039;-82
2021/11/21 02:52:32;;;;;;;0.00;0.00;;;8.90;99.90;;;;;;5134237;28;20032;-86
2021/11/21 02:54:58;;;;;;;0.00;0.00;;;8.90;99.90;;;;;;5116843;28;20046;-85
2021/11/21 02:57:27;;;;;;;0.00;0.00;;;8.90;99.90;;;;;;5100227;28;20093;-83
2021/11/21 02:59:53;;;;;;;0.00;0.00;;;8.90;99.90;;;;;;5116398;28;20034;-82
2021/11/21 03:02:21;;;;;;;0.00;0.00;;;8.90;99.90;;;;;;5116986;28;20488;-86
2021/11/21 03:04:52;;;;;;;0.00;0.00;;;8.90;99.90;;;;;;5133768;28;20094;-82
2021/11/21 03:07:20;;;;;;;0.00;0.00;;;8.90;99.90;;;;;;5132945;28;20495;-81
2021/11/21 03:09:49;;;;;;;0.00;0.00;;;9.10;99.90;;;;;;5133455;28;20042;-85
2021/11/21 03:12:20;;;;;;;0.00;0.00;;;8.90;99.90;;;;;;5132923;28;20411;-83
2021/11/21 03:14:48;;;;;;;0.00;0.00;;;8.90;99.90;;;;;;5132823;28;20098;-82
2021/11/21 03:17:15;;;;;;;0.00;0.00;;;8.90;99.90;;;;;;5099274;28;20437;-85
2021/11/21 03:19:42;;;;;;;0.00;0.00;;;8.90;99.90;;;;;;5150820;28;20039;-85
2021/11/21 03:22:10;;;;;;;0.00;0.00;;;8.90;99.90;;;;;;5116102;28;20036;-85
2021/11/21 03:24:36;;;;;;;0.00;0.00;;;8.80;99.90;;;;;;5150101;28;20036;-85
2021/11/21 03:27:04;;;;;;;0.00;0.00;;;8.80;99.90;;;;;;5133222;28;20142;-85
2021/11/21 03:29:30;;;;;;;0.00;0.00;;;8.80;99.90;;;;;;5116854;28;20040;-85
2021/11/21 03:31:57;;;;;;;0.00;0.00;;;8.90;99.90;;;;;;5133194;28;20035;-81
2021/11/21 03:34:24;;;;;;;0.00;0.00;;;8.80;99.90;;;;;;5099686;28;20070;-82
2021/11/21 03:36:51;;;;;;;0.08;0.08;;;8.80;99.90;;;;;;5133327;28;20102;-81
2021/11/21 03:39:18;;;;;;;0.05;0.05;;;8.80;99.90;;;;;;5132718;28;20038;-85
2021/11/21 03:41:45;;;;;;;0.00;0.00;;;8.80;99.90;;;;;;5132647;28;20047;-81
2021/11/21 03:44:11;;;;;;;0.00;0.00;;;8.80;99.90;;;;;;5098461;28;20044;-81
2021/11/21 03:46:39;;;;;;;0.00;0.00;;;8.80;99.90;;;;;;5115514;28;20046;-82
2021/11/21 03:49:06;;;;;;;0.10;0.10;;;8.80;99.90;;;;;;5115396;28;20047;-85
2021/11/21 03:51:34;;;;;;;0.00;0.00;;;8.80;99.90;;;;;;5116174;28;20035;-82
2021/11/21 03:54:01;;;;;;;0.00;0.00;;;8.80;99.90;;;;;;5133169;28;20042;-82
2021/11/21 03:56:27;;;;;;;0.00;0.00;;;8.90;99.90;;;;;;5132151;28;20035;-82
2021/11/21 03:58:54;;;;;;;0.00;0.00;;;8.80;99.90;;;;;;5131331;28;20040;-82
2021/11/21 04:01:21;;;;;;;0.00;0.00;;;8.70;99.90;;;;;;5097698;28;20047;-87
2021/11/21 04:03:48;;;;;;;0.00;0.00;;;8.70;99.90;;;;;;5132121;28;20039;-82
2021/11/21 04:06:15;;;;;;;0.00;0.00;;;8.80;99.90;;;;;;5115429;28;20139;-82
2021/11/21 04:08:42;;;;;;;0.00;0.00;;;8.80;99.90;;;;;;5115155;28;20438;-86
2021/11/21 04:11:09;;;;;;;0.00;0.00;;;8.70;99.90;;;;;;5148570;28;20044;-82
2021/11/21 04:13:38;;;;;;;0.00;0.00;;;8.70;99.90;;;;;;5115192;28;20099;-82
2021/11/21 04:16:05;;;;;;;0.00;0.00;;;8.80;99.90;;;;;;5131681;28;20096;-84
2021/11/21 04:18:33;;;;;;;0.00;0.00;;;8.70;99.90;;;;;;5098553;28;20043;-86
2021/11/21 04:21:00;;;;;;;0.00;0.00;;;8.70;99.90;;;;;;5115478;28;20043;-82
2021/11/21 04:23:30;;;;;;;0.00;0.00;;;8.70;99.90;;;;;;5148673;28;20507;-82
2021/11/21 04:25:57;;;;;;;0.00;0.00;;;8.70;99.90;;;;;;5116366;28;20392;-82
2021/11/21 04:28:24;;;;;;;0.00;0.00;;;8.70;99.90;;;;;;5114465;28;20075;-82
2021/11/21 04:30:53;;;;;;;0.00;0.00;;;8.70;99.90;;;;;;5115036;28;20074;-82
2021/11/21 04:33:21;;;;;;;0.00;0.00;;;8.70;99.90;;;;;;5131021;28;20452;-82
2021/11/21 04:35:48;;;;;;;0.00;0.00;;;8.70;99.90;;;;;;5131264;28;20039;-82
2021/11/21 04:38:15;;;;;;;0.10;0.10;;;8.70;99.90;;;;;;5088232;28;20043;-82
2021/11/21 04:40:42;;;;;;;0.00;0.00;;;8.60;99.90;;;;;;5094331;28;20500;-82
2021/11/21 04:43:11;;;;;;;0.00;0.00;;;8.60;99.90;;;;;;5102586;28;20472;-85
2021/11/21 04:45:38;;;;;;;0.00;0.00;;;8.60;99.90;;;;;;5111921;28;20200;-82
2021/11/21 04:48:05;;;;;;;0.00;0.00;;;8.60;99.90;;;;;;5110544;28;20036;-82
2021/11/21 04:50:32;;;;;;;0.08;0.08;;;8.60;99.90;;;;;;5093545;28;20412;-82
2021/11/21 04:52:59;;;;;;;0.03;0.03;;;8.60;99.90;;;;;;5094357;28;20450;-82
2021/11/21 04:55:27;;;;;;;0.10;0.10;;;8.50;99.90;;;;;;5094344;28;20032;-85
2021/11/21 04:57:54;;;;;;;0.03;0.03;;;8.60;99.90;;;;;;5111442;28;20130;-86
2021/11/21 05:00:21;;;;;;;0.03;0.03;;;8.50;99.90;;;;;;5111325;28;20058;-82
2021/11/21 05:02:49;;;;;;;0.00;0.00;;;8.50;99.90;;;;;;5110545;28;20044;-83
2021/11/21 05:05:18;;;;;;;0.00;0.00;;;8.70;99.90;;;;;;5126584;28;20056;-85
2021/11/21 05:07:45;;;;;;;0.00;0.00;;;8.40;99.90;;;;;;5094252;28;20468;-82
2021/11/21 05:10:13;;;;;;;0.00;0.00;;;8.40;99.90;;;;;;5097774;28;20458;-84
2021/11/21 05:12:40;;;;;;;0.10;0.10;;;8.40;99.90;;;;;;5118036;28;20032;-85
2021/11/21 05:15:09;;;;;;;14.70;0.52;;;8.40;99.90;;;;;;5101248;28;20036;-81
2021/11/21 05:17:36;;;;;;;0.00;0.00;;;8.30;99.90;;;;;;5117837;28;20043;-86
2021/11/21 05:20:04;;;;;;;0.00;0.00;;;8.30;99.90;;;;;;5100808;28;20044;-82
2021/11/21 05:22:31;;;;;;;0.00;0.00;;;8.30;99.90;;;;;;5116443;28;20540;-82
2021/11/21 05:24:58;;;;;;;0.00;0.00;;;8.30;99.90;;;;;;5134716;28;20040;-85
2021/11/21 05:27:25;;;;;;;0.10;0.10;;;8.30;99.90;;;;;;5134891;28;20123;-82
2021/11/21 05:29:52;;;;;;;0.03;0.03;;;8.30;99.90;;;;;;5100900;28;20401;-82
2021/11/21 05:32:20;;;;;;;0.00;0.00;;;8.30;99.90;;;;;;5101044;28;20139;-83
2021/11/21 05:34:47;;;;;;;0.10;0.10;;;8.20;99.90;;;;;;5117680;28;20040;-85
2021/11/21 05:37:14;;;;;;;0.00;0.00;;;8.20;99.90;;;;;;5100388;28;20123;-86
2021/11/21 05:39:41;;;;;;;0.00;0.00;;;8.20;99.90;;;;;;5100184;28;20495;-82
2021/11/21 05:42:08;;;;;;;0.00;0.00;;;8.20;99.90;;;;;;5117026;28;20035;-82
2021/11/21 05:44:35;;;;;;;0.00;0.00;;;8.20;99.90;;;;;;5100172;28;20123;-82
2021/11/21 05:47:02;;;;;;;0.03;0.03;;;8.20;99.90;;;;;;5116742;28;20480;-85
2021/11/21 05:49:28;;;;;;;0.00;0.00;;;8.10;99.90;;;;;;5116575;28;20058;-82
2021/11/21 05:51:55;;;;;;;0.03;0.03;;;8.60;99.90;;;;;;5101077;28;20489;-86
2021/11/21 05:54:22;;;;;;;0.10;0.10;;;8.10;99.90;;;;;;5133358;28;20458;-85
2021/11/21 05:56:48;;;;;;;0.10;0.10;;;8.10;99.90;;;;;;5100501;28;20063;-85
2021/11/21 05:59:15;;;;;;;0.10;0.10;;;8.10;99.90;;;;;;5100580;28;20039;-82
2021/11/21 06:01:42;;;;;;;0.00;0.00;;;8.00;99.90;;;;;;5099854;28;20039;-83
2021/11/21 06:04:09;;;;;;;0.10;0.10;;;8.00;99.90;;;;;;5099887;28;20078;-85
2021/11/21 06:06:35;;;;;;;0.00;0.00;;;7.90;99.90;;;;;;5099961;28;20039;-85
2021/11/21 06:09:03;;;;;;;0.10;0.10;;;7.90;99.90;;;;;;5099973;28;20044;-85
2021/11/21 06:11:30;;;;;;;0.00;0.00;;;7.90;99.90;;;;;;5115958;28;20043;-85
2021/11/21 06:13:57;;;;;;;0.10;0.10;;;7.80;99.90;;;;;;5117126;28;20036;-85
2021/11/21 06:16:24;;;;;;;0.10;0.10;;;7.80;99.90;;;;;;5134561;28;20122;-86
2021/11/21 06:18:50;;;;;;;0.00;0.00;;;7.70;99.90;;;;;;5101855;28;20122;-86
2021/11/21 06:21:17;;;;;;;0.00;0.00;;;7.70;99.90;;;;;;5097941;28;20548;-85
2021/11/21 06:23:45;;;;;;;0.10;0.10;;;7.70;99.90;;;;;;5095897;28;20032;-82
2021/11/21 06:26:12;;;;;;;0.10;0.10;;;7.60;99.90;;;;;;5112971;28;20131;-86
2021/11/21 06:28:39;;;;;;;0.00;0.00;;;7.60;99.90;;;;;;5097586;28;20047;-82
2021/11/21 06:31:06;;;;;;;0.10;0.10;;;7.60;99.90;;;;;;5096127;28;20711;-82
2021/11/21 06:33:33;;;;;;;0.10;0.10;;;7.50;99.90;;;;;;5113799;28;20177;-82
2021/11/21 06:36:02;;;;;;;0.10;0.10;;;7.50;99.90;;;;;;5114632;28;20028;-82
2021/11/21 06:38:30;;;;;;;0.05;0.05;;;7.40;99.90;;;;;;5096175;28;20040;-82
2021/11/21 06:40:59;;;;;;;0.00;0.00;;;7.40;99.90;;;;;;5096374;28;20047;-82
2021/11/21 06:43:26;;;;;;;0.00;0.00;;;7.40;99.90;;;;;;5112433;28;20047;-85
2021/11/21 06:45:52;;;;;;;0.10;0.10;;;7.50;99.90;;;;;;5096853;28;20040;-85
2021/11/21 06:48:21;;;;;;;0.00;0.00;;;7.30;99.90;;;;;;5095815;28;20403;-85
2021/11/21 06:50:51;;;;;;;0.10;0.10;;;7.30;99.90;;;;;;5095401;28;20075;-82
2021/11/21 06:53:19;;;;;;;0.10;0.10;;;7.40;99.90;;;;;;5096223;28;20126;-85
2021/11/21 06:55:46;;;;;;;0.10;0.10;;;7.30;99.90;;;;;;5111808;28;20036;-82
2021/11/21 06:58:13;;;;;;;0.10;0.10;;;7.40;99.90;;;;;;5128882;28;20395;-82
2021/11/21 07:00:39;;;;;;;0.10;0.10;;;7.20;99.90;;;;;;5111657;28;20043;-85
2021/11/21 07:03:06;;;;;;;0.10;0.10;;;7.60;99.90;;;;;;5095883;28;20055;-82
2021/11/21 07:05:34;;;;;;;0.10;0.10;;;7.20;99.90;;;;;;5112336;28;20063;-85
2021/11/21 07:08:01;;;;;;;0.00;0.00;;;7.50;99.90;;;;;;5095552;28;20094;-85
2021/11/21 07:10:27;;;;;;;0.00;0.00;;;7.10;99.90;;;;;;5112481;28;20040;-85
2021/11/21 07:12:55;;;;;;;0.00;0.00;;;7.10;99.90;;;;;;5095324;28;20040;-85
2021/11/21 07:15:21;;;;;;;0.00;0.00;;;7.10;99.90;;;;;;5095493;28;20035;-82
2021/11/21 07:17:49;;;;;;;0.10;0.10;;;7.00;99.90;;;;;;5094841;28;20047;-85
2021/11/21 07:20:16;;;;;;;0.10;0.10;;;7.10;99.90;;;;;;5095228;28;20404;-82
2021/11/21 07:22:48;;;;;;;0.10;0.10;;;7.00;99.90;;;;;;5111772;28;20040;-82
2021/11/21 07:25:17;;;;;;;0.03;0.03;;;7.00;99.90;;;;;;5129680;28;20131;-82
2021/11/21 07:27:44;;;;;;;0.00;0.00;;;7.00;99.90;;;;;;5113016;28;20047;-82
2021/11/21 07:30:19;;;;;;;0.10;0.10;;;6.90;99.90;;;;;;5095364;28;20036;-82
2021/11/21 07:32:46;;;;;;;0.10;0.10;;;7.00;99.90;;;;;;5111169;28;20456;-85
2021/11/21 07:35:14;;;;;;;0.10;0.10;;;6.90;99.90;;;;;;5112103;28;20040;-82
2021/11/21 07:37:41;;;;;;;0.10;0.10;;;7.00;99.90;;;;;;5095108;28;20036;-82
2021/11/21 07:40:10;;;;;;;0.10;0.10;;;6.90;99.90;;;;;;5105618;28;20396;-82
2021/11/21 07:42:38;;;;;;;0.08;0.08;;;6.90;99.90;;;;;;5129109;28;20040;-82
2021/11/21 07:45:07;;;;;;;0.10;0.10;;;6.90;99.90;;;;;;5121128;28;20032;-85
2021/11/21 07:47:34;;;;;;;0.10;0.10;;;6.90;99.90;;;;;;5128045;28;20044;-85
2021/11/21 07:50:01;;;;;;;0.10;0.10;;;6.90;99.90;;;;;;5083680;28;20050;-85
2021/11/21 07:52:28;;;;;;;0.10;0.10;;;6.90;99.90;;;;;;5132372;28;20096;-82
2021/11/21 07:54:54;;;;;;;0.10;0.10;;;6.90;99.90;;;;;;5098032;28;20089;-82
2021/11/21 07:57:21;;;;;;;0.00;0.00;;;6.90;99.90;;;;;;5132154;28;20031;-85
2021/11/21 07:59:48;;;;;;;0.10;0.10;;;6.90;99.90;;;;;;5089502;28;20074;-82
2021/11/21 08:02:15;;;;;;;0.10;0.10;;;6.80;99.90;;;;;;5096269;28;20561;-82
2021/11/21 08:04:41;;;;;;;0.10;0.10;;;6.90;99.90;;;;;;5097383;28;20051;-85
2021/11/21 08:07:09;;;;;;;0.10;0.10;;;6.90;99.90;;;;;;5098382;28;20040;-86
2021/11/21 08:09:36;;;;;;;0.10;0.10;;;6.90;99.90;;;;;;5092539;28;20047;-82
2021/11/21 08:12:03;;;;;;;0.10;0.10;;;6.80;99.90;;;;;;5115172;28;20403;-86
2021/11/21 08:14:30;;;;;;;0.10;0.10;;;6.80;99.90;;;;;;5132585;28;20617;-85
2021/11/21 08:16:56;;;;;;;0.52;0.52;;;6.80;99.90;;;;;;5114307;28;20122;-82
2021/11/21 08:19:23;;;;;;;0.00;0.00;;;6.90;99.90;;;;;;5097871;28;20043;-85
2021/11/21 08:21:50;;;;;;;0.10;0.10;;;7.00;99.90;;;;;;5131157;28;20043;-82
2021/11/21 08:24:16;;;;;;;0.10;0.10;;;7.00;99.90;;;;;;5092976;28;20089;-85
2021/11/21 08:26:43;;;;;;;0.10;0.10;;;7.10;99.90;;;;;;5094276;28;20044;-83
2021/11/21 08:29:10;;;;;;;0.10;0.10;;;7.20;99.90;;;;;;5078539;28;20076;-83
2021/11/21 08:31:37;;;;;;;0.10;0.10;;;7.30;99.90;;;;;;5095358;28;20100;-83
2021/11/21 08:34:03;;;;;;;0.10;0.10;;;7.30;99.90;;;;;;5077132;28;20031;-86
2021/11/21 08:36:30;;;;;;;0.00;0.00;;;7.30;99.90;;;;;;5094397;28;20043;-86
2021/11/21 08:38:57;;;;;;;0.08;0.08;;;7.30;99.90;;;;;;5110386;28;20044;-82
2021/11/21 08:41:23;;;;;;;0.10;0.10;;;7.30;99.90;;;;;;5077436;28;20040;-84
2021/11/21 08:43:50;;;;;;;0.10;0.10;;;7.50;99.90;;;;;;5111161;28;20078;-84
2021/11/21 08:46:17;;;;;;;0.00;0.00;;;7.30;99.90;;;;;;5078035;28;20044;-82
2021/11/21 08:48:44;;;;;;;0.05;0.05;;;7.30;99.90;;;;;;5110648;28;20412;-85
2021/11/21 08:51:10;;;;;;;0.10;0.10;;;7.30;99.90;;;;;;5110330;28;20040;-82
2021/11/21 08:53:39;;;;;;;0.10;0.10;;;7.30;99.90;;;;;;5077010;28;20032;-85
2021/11/21 08:56:06;;;;;;;0.10;0.10;;;7.30;99.90;;;;;;5076618;28;20519;-82
2021/11/21 08:58:32;;;;;;;0.00;0.00;;;7.40;99.90;;;;;;5129140;28;20118;-85
2021/11/21 09:00:59;;;;;;;0.00;0.00;;;7.40;99.90;;;;;;5113774;28;20039;-85
2021/11/21 09:03:26;;;;;;;0.10;0.10;;;7.40;99.90;;;;;;5130177;28;20442;-83
2021/11/21 09:05:52;;;;;;;0.10;0.10;;;7.40;99.90;;;;;;5096053;28;20143;-82
2021/11/21 09:08:19;;;;;;;0.10;0.10;;;7.40;99.90;;;;;;5097225;28;20047;-82
2021/11/21 09:10:46;;;;;;;0.10;0.10;;;7.40;99.90;;;;;;5097608;28;20039;-83
2021/11/21 09:13:13;;;;;;;0.10;0.10;;;7.40;99.90;;;;;;5113893;28;20045;-84
2021/11/21 09:15:40;;;;;;;0.00;0.00;;;7.50;99.90;;;;;;5113952;28;20463;-82
2021/11/21 09:18:06;;;;;;;0.10;0.10;;;7.50;99.90;;;;;;5130926;28;20036;-82
2021/11/21 09:20:33;;;;;;;0.00;0.00;;;7.60;99.90;;;;;;5096421;28;20036;-82
2021/11/21 09:23:03;;;;;;;0.00;0.00;;;7.70;99.90;;;;;;5128614;28;20043;-83
2021/11/21 09:25:30;;;;;;;0.00;0.00;;;8.10;99.90;;;;;;5110185;28;20143;-83
2021/11/21 09:27:57;;;;;;;0.10;0.10;;;7.80;99.90;;;;;;5089462;28;20062;-84
2021/11/21 09:30:25;;;;;;;0.10;0.10;;;7.80;99.90;;;;;;5122394;28;20032;-83
2021/11/21 09:32:52;;;;;;;0.08;0.08;;;7.80;99.90;;;;;;5125704;28;20040;-84
2021/11/21 09:35:20;;;;;;;0.00;0.00;;;7.80;99.90;;;;;;5092827;28;20065;-86
2021/11/21 09:37:47;;;;;;;0.10;0.10;;;7.70;99.90;;;;;;5129603;28;20047;-86
2021/11/21 09:40:14;;;;;;;0.05;0.05;;;7.70;99.90;;;;;;5119002;28;20497;-83
2021/11/21 09:42:42;;;;;;;0.10;0.10;;;7.60;99.90;;;;;;5108595;28;20120;-86
2021/11/21 09:45:12;;;;;;;0.10;0.10;;;7.70;99.90;;;;;;5091890;28;20741;-85
2021/11/21 09:47:39;;;;;;;0.00;0.00;;;7.60;99.90;;;;;;5145363;28;20048;-86
2021/11/21 09:50:11;;;;;;;0.10;0.10;;;7.60;99.90;;;;;;5095619;28;20062;-87
2021/11/21 09:52:39;;;;;;;0.10;0.10;;;7.60;99.90;;;;;;5127179;28;20488;-83
2021/11/21 09:55:08;;;;;;;0.00;0.00;;;7.60;99.90;;;;;;5106730;28;20039;-87
2021/11/21 09:57:36;;;;;;;0.00;0.00;;;7.70;99.90;;;;;;5122329;28;20044;-83
2021/11/21 10:00:08;;;;;;;0.10;0.10;;;7.70;99.90;;;;;;5121951;28;20116;-84
2021/11/21 10:02:44;;;;;;;0.10;0.10;;;7.70;99.90;;;;;;5124302;28;20077;-83
2021/11/21 10:05:25;;;;;;;0.10;0.10;;;7.80;99.90;;;;;;5129807;28;20075;-83
2021/11/21 10:08:24;;;;;;;0.10;0.10;;;7.80;99.90;;;;;;5131681;28;20113;-86
2021/11/21 10:11:09;;;;;;;0.10;0.10;;;7.90;99.90;;;;;;5141797;28;20036;-84
2021/11/21 10:13:45;;;;;;;0.05;0.05;;;8.00;99.90;;;;;;5117714;28;20067;-83
2021/11/21 10:16:18;;;;;;;0.10;0.10;;;8.00;99.90;;;;;;5116405;28;20126;-87
2021/11/21 10:18:45;;;;;;;0.08;0.08;;;8.10;99.90;;;;;;5132391;28;20040;-83
2021/11/21 10:21:11;;;;;;;0.10;0.10;;;8.10;99.90;;;;;;5132463;28;20047;-83
2021/11/21 10:23:38;;;;;;;0.10;0.10;;;8.10;99.90;;;;;;5098501;28;20092;-83
2021/11/21 10:26:05;;;;;;;0.00;0.00;;;8.00;99.90;;;;;;5111634;28;20119;-86
2021/11/21 10:28:32;;;;;;;0.10;0.10;;;8.00;99.90;;;;;;5081805;28;20526;-86
2021/11/21 10:31:10;;;;;;;0.00;0.00;;;8.00;99.90;;;;;;5133583;28;20417;-86
2021/11/21 10:33:57;;;;;;;0.10;0.10;;;8.00;99.90;;;;;;5149113;28;20035;-83
2021/11/21 10:36:29;;;;;;;0.10;0.10;;;8.10;99.90;;;;;;5133010;28;20039;-83
2021/11/21 10:38:57;;;;;;;0.00;0.00;;;8.20;99.90;;;;;;5132107;28;20043;-83
2021/11/21 10:41:33;;;;;;;0.10;0.10;;;8.30;99.90;;;;;;5133286;28;20055;-86
2021/11/21 10:44:03;;;;;;;0.00;0.00;;;8.40;99.90;;;;;;5126940;28;20036;-85
2021/11/21 10:46:52;;;;;;;0.10;0.10;;;8.40;99.90;;;;;;5112396;28;20040;-86
2021/11/21 10:49:36;;;;;;;0.00;0.00;;;8.50;99.90;;;;;;5116166;28;20043;-83
2021/11/21 10:52:08;;;;;;;0.10;0.10;;;8.60;99.90;;;;;;5132178;28;20477;-84
2021/11/21 10:54:51;;;;;;;0.10;0.10;;;8.60;99.90;;;;;;5149615;28;20047;-84
2021/11/21 10:57:25;;;;;;;0.10;0.10;;;8.60;99.90;;;;;;5131698;28;20089;-83
2021/11/21 10:59:59;;;;;;;0.05;0.05;;;8.60;99.90;;;;;;5131786;28;20032;-83
2021/11/21 11:02:31;;;;;;;0.03;0.03;;;8.50;99.90;;;;;;5116615;28;20035;-83
2021/11/21 11:05:02;;;;;;;0.10;0.10;;;8.50;99.90;;;;;;5131446;28;20416;-82
2021/11/21 11:07:51;;;;;;;0.00;0.00;;;8.50;99.90;;;;;;5148557;28;20040;-83
2021/11/21 11:10:24;;;;;;;0.03;0.03;;;8.60;99.90;;;;;;5131194;28;20361;-86
2021/11/21 11:13:05;;;;;;;0.00;0.00;;;8.70;99.90;;;;;;5132781;28;20400;-83
2021/11/21 11:15:35;;;;;;;0.00;0.00;;;8.80;99.90;;;;;;5132554;28;20042;-85
2021/11/21 11:18:01;;;;;;;0.10;0.10;;;8.90;99.90;;;;;;5132368;28;20130;-84
2021/11/21 11:20:29;;;;;;;0.10;0.10;;;9.00;99.90;;;;;;5115857;28;20075;-85
2021/11/21 11:22:58;;;;;;;0.10;0.10;;;9.20;99.90;;;;;;5107472;28;20044;-83
2021/11/21 11:25:29;;;;;;;0.00;0.00;;;9.30;99.90;;;;;;5095088;28;20385;-84
2021/11/21 11:28:07;;;;;;;0.00;0.00;;;9.40;99.90;;;;;;5111463;28;20048;-83
2021/11/21 11:30:36;;;;;;;0.00;0.00;;;9.40;99.90;;;;;;5111732;28;20040;-85
2021/11/21 11:33:16;;;;;;;0.00;0.00;;;9.40;99.90;;;;;;5127920;28;20032;-84
2021/11/21 11:35:54;;;;;;;0.00;0.00;;;9.20;99.90;;;;;;5128243;28;20089;-85
2021/11/21 11:38:24;;;;;;;0.00;0.00;;;9.10;99.90;;;;;;5111075;28;20051;-82
2021/11/21 11:40:59;;;;;;;0.10;0.10;;;9.00;99.90;;;;;;5111010;28;20036;-83
2021/11/21 11:43:42;;;;;;;0.00;0.00;;;8.80;99.90;;;;;;5144035;28;20503;-85
2021/11/21 11:46:14;;;;;;;0.00;0.00;;;8.70;99.90;;;;;;5148092;28;20039;-81
2021/11/21 11:48:57;;;;;;;0.00;0.00;;;8.60;99.90;;;;;;5130940;28;20176;-82
2021/11/21 11:51:38;;;;;;;0.00;0.00;;;8.50;99.90;;;;;;5147652;28;20484;-80
2021/11/21 11:54:15;;;;;;;0.00;0.00;;;8.50;99.90;;;;;;5131194;28;20088;-81
2021/11/21 11:56:46;;;;;;;0.00;0.00;;;8.50;99.90;;;;;;5131095;28;20040;-82
2021/11/21 11:59:31;;;;;;;0.00;0.00;;;8.50;99.90;;;;;;5148307;28;20081;-82
2021/11/21 12:02:07;;;;;;;0.00;0.00;;;8.60;99.90;;;;;;5131769;28;20039;-84
2021/11/21 12:04:44;;;;;;;0.35;0.35;;;8.70;99.90;;;;;;5130838;28;20126;-82
2021/11/21 12:07:17;;;;;;;0.00;0.00;;;8.80;99.90;;;;;;5147640;28;20510;-82
2021/11/21 12:09:57;;;;;;;0.00;0.00;;;8.80;99.90;;;;;;5148079;28;20089;-85
2021/11/21 12:12:50;;;;;;;0.00;0.00;;;9.00;99.90;;;;;;5144751;28;20036;-84
2021/11/21 12:15:36;;;;;;;0.10;0.10;;;9.00;99.90;;;;;;5147289;28;20050;-84
2021/11/21 12:18:04;;;;;;;0.00;0.00;;;9.10;99.90;;;;;;5130968;28;20050;-82
2021/11/21 12:20:51;;;;;;;0.00;0.00;;;9.10;99.90;;;;;;5129769;28;20512;-86
2021/11/21 12:23:40;;;;;;;0.00;0.00;;;9.30;99.90;;;;;;5110906;28;20127;-85
2021/11/21 12:26:36;;;;;;;0.00;0.00;;;9.50;99.90;;;;;;5109950;28;20408;-82
2021/11/21 12:29:08;;;;;;;0.00;0.00;;;9.60;99.90;;;;;;5110497;28;20040;-82
2021/11/21 12:31:39;;;;;;;0.00;0.00;;;9.60;99.90;;;;;;5110863;28;20046;-84
2021/11/21 12:34:43;;;;;;;0.00;0.00;;;9.50;99.90;;;;;;5112385;28;20040;-84
2021/11/21 12:37:31;;;;;;;0.00;0.00;;;9.30;99.90;;;;;;5139153;28;20039;-82
2021/11/21 12:40:07;;;;;;;0.00;0.00;;;9.20;99.90;;;;;;5147797;28;20032;-84
2021/11/21 12:42:35;;;;;;;;;;;9.10;99.90;;;;;;5130768;28;20035;-84
2021/11/21 12:45:07;;;;;;;0.00;0.00;;;9.00;99.90;;;;;;5116502;28;19915;-82
2021/11/21 12:47:34;;;;;;;0.00;0.00;;;9.00;99.90;;;;;;5118476;28;20737;-84
2021/11/21 12:50:03;;;;;;;0.00;0.00;;;8.80;99.90;;;;;;5099053;28;20077;-84
2021/11/21 12:52:29;;;;;;;0.00;0.00;;;8.80;99.90;;;;;;5131278;28;20077;-84
2021/11/21 12:54:56;;;;;;;0.00;0.00;;;8.70;99.90;;;;;;5121784;28;20044;-84
2021/11/21 12:57:23;;;;;;;0.00;0.00;;;8.70;99.90;;;;;;5095806;28;20027;-84
2021/11/21 12:59:58;;;;;;;0.00;0.00;;;8.70;99.90;;;;;;5127765;28;20043;-81
2021/11/21 13:02:27;;;;;;;0.00;0.00;;;8.70;99.90;;;;;;5128020;28;20119;-84
2021/11/21 13:05:00;;;;;;;0.10;0.10;;;8.70;99.90;;;;;;5111283;28;20412;-84
2021/11/21 13:07:28;;;;;;;0.00;0.00;;;8.70;99.90;;;;;;5127852;28;20126;-84
2021/11/21 13:10:10;;;;;;;0.00;0.00;;;8.70;99.90;;;;;;5114827;28;20038;-84